createdAt,value
2019-02-22T00:00:38.137Z,85.57
2019-02-22T00:03:08.355Z,88.73
2019-02-22T00:05:38.981Z,74.33
2019-02-22T00:08:09.215Z,70.07
2019-02-22T00:10:39.758Z,75.30
2019-02-22T00:13:10.019Z,68.43
2019-02-22T00:15:40.387Z,99.13
2019-02-22T00:18:10.857Z,60.90
2019-02-22T00:20:41.396Z,57.50
2019-02-22T00:23:11.817Z,51.70
2019-02-22T00:25:42.102Z,50.00
2019-02-22T00:28:15.579Z,80.87
2019-02-22T00:30:46.027Z,50.97
2019-02-22T00:33:16.577Z,52.57
2019-02-22T00:35:46.927Z,50.43
2019-02-22T00:38:17.480Z,37.70
2019-02-22T00:40:47.680Z,35.70
2019-02-22T00:43:18.064Z,39.10
2019-02-22T00:45:48.321Z,46.50
2019-02-22T00:48:18.552Z,41.73
2019-02-22T00:50:48.777Z,45.17
2019-02-22T00:53:19.086Z,38.93
2019-02-22T00:55:49.362Z,67.57
2019-02-22T00:58:19.604Z,45.73
2019-02-22T01:00:49.896Z,44.27
2019-02-22T01:03:20.086Z,40.70
2019-02-22T01:05:50.374Z,41.60
2019-02-22T01:08:20.590Z,39.00
2019-02-22T01:10:51.341Z,42.67
2019-02-22T01:13:24.463Z,35.70
2019-02-22T01:15:55.574Z,37.37
2019-02-22T01:18:25.820Z,37.37
2019-02-22T01:20:56.122Z,47.23
2019-02-22T01:23:26.656Z,33.20
2019-02-22T01:25:57.760Z,39.47
2019-02-22T01:28:27.974Z,73.87
2019-02-22T01:30:58.178Z,41.17
2019-02-22T01:33:28.737Z,38.60
2019-02-22T01:35:58.983Z,42.27
2019-02-22T01:38:29.506Z,44.10
2019-02-22T01:41:02.111Z,42.77
2019-02-22T01:43:33.468Z,34.67
2019-02-22T01:46:03.956Z,35.57
2019-02-22T01:48:34.184Z,47.00
2019-02-22T01:51:04.820Z,48.07
2019-02-22T01:53:35.101Z,50.97
2019-02-22T01:56:05.612Z,38.20
2019-02-22T01:58:35.890Z,51.13
2019-02-22T02:01:12.232Z,42.37
2019-02-22T02:03:42.425Z,90.40
2019-02-22T02:06:12.951Z,45.70
2019-02-22T02:08:43.380Z,61.87
2019-02-22T02:11:13.617Z,44.80
2019-02-22T02:13:44.227Z,86.73
2019-02-22T02:16:14.866Z,92.37
2019-02-22T02:18:45.043Z,60.37
2019-02-22T02:21:15.277Z,98.53
2019-02-22T02:23:45.835Z,44.40
2019-02-22T02:26:16.604Z,77.40
2019-02-22T02:28:46.867Z,48.80
2019-02-22T02:31:17.064Z,45.17
2019-02-22T02:33:48.236Z,56.03
2019-02-22T02:36:18.488Z,49.60
2019-02-22T02:38:48.953Z,97.93
2019-02-22T02:41:19.195Z,87.40
2019-02-22T02:43:49.737Z,257.43
2019-02-22T02:46:19.971Z,47.73
2019-02-22T02:48:50.901Z,47.73
2019-02-22T02:51:21.145Z,108.20
2019-02-22T02:53:51.391Z,151.73
2019-02-22T02:56:21.622Z,82.57
2019-02-22T02:58:51.893Z,41.70
2019-02-22T03:01:22.142Z,57.63
2019-02-22T03:03:52.348Z,141.30
2019-02-22T03:06:29.575Z,46.47
2019-02-22T03:09:00.294Z,41.27
2019-02-22T03:11:30.778Z,194.30
2019-02-22T03:14:01.827Z,117.23
2019-02-22T03:16:32.146Z,47.33
2019-02-22T03:19:02.748Z,76.73
2019-02-22T03:21:33.269Z,43.77
2019-02-22T03:24:03.894Z,189.20
2019-02-22T03:26:34.565Z,47.63
2019-02-22T03:29:05.412Z,88.17
2019-02-22T03:31:36.029Z,53.10
2019-02-22T03:34:06.238Z,41.80
2019-02-22T03:36:36.595Z,51.77
2019-02-22T03:39:08.189Z,36.17
2019-02-22T03:41:39.064Z,34.13
2019-02-22T03:44:09.337Z,41.97
2019-02-22T03:46:39.626Z,42.57
2019-02-22T03:49:09.935Z,37.80
2019-02-22T03:51:40.788Z,54.13
2019-02-22T03:54:11.370Z,65.07
2019-02-22T03:56:41.788Z,36.37
2019-02-22T03:59:12.351Z,45.17
2019-02-22T04:01:43.235Z,42.87
2019-02-22T04:04:13.746Z,39.30
2019-02-22T04:06:43.991Z,43.57
2019-02-22T04:09:14.197Z,31.83
2019-02-22T04:11:46.129Z,45.07
2019-02-22T04:14:16.833Z,36.97
2019-02-22T04:16:47.102Z,53.10
2019-02-22T04:19:17.359Z,52.30
2019-02-22T04:21:48.320Z,31.20
2019-02-22T04:24:18.512Z,58.53
2019-02-22T04:26:49.177Z,31.80
2019-02-22T04:29:19.399Z,32.30
2019-02-22T04:31:49.742Z,40.80
2019-02-22T04:34:20.351Z,51.10
2019-02-22T04:36:50.637Z,36.70
2019-02-22T04:39:20.801Z,92.87
2019-02-22T04:41:58.064Z,47.67
2019-02-22T04:44:22.873Z,35.20
2019-02-22T04:46:53.083Z,34.57
2019-02-22T04:49:23.377Z,35.73
2019-02-22T04:51:54.059Z,34.03
2019-02-22T04:54:24.269Z,39.73
2019-02-22T04:56:54.499Z,29.23
2019-02-22T04:59:24.738Z,101.97
2019-02-22T05:01:55.321Z,102.33
2019-02-22T05:04:25.559Z,44.73
2019-02-22T05:06:56.180Z,99.63
2019-02-22T05:09:26.458Z,147.97
2019-02-22T05:12:10.066Z,31.97
2019-02-22T05:14:30.051Z,30.37
2019-02-22T05:17:00.534Z,43.90
2019-02-22T05:19:30.754Z,78.03
2019-02-22T05:22:01.397Z,173.37
2019-02-22T05:24:31.635Z,33.90
2019-02-22T05:27:02.178Z,73.73
2019-02-22T05:29:33.064Z,78.23
2019-02-22T05:32:03.554Z,126.20
2019-02-22T05:34:33.824Z,30.17
2019-02-22T05:37:04.460Z,27.77
2019-02-22T05:39:35.216Z,29.67
2019-02-22T05:42:06.076Z,55.57
2019-02-22T05:44:36.441Z,62.00
2019-02-22T05:47:07.019Z,45.73
2019-02-22T05:49:37.268Z,41.47
2019-02-22T05:52:07.484Z,42.07
2019-02-22T05:54:37.794Z,89.40
2019-02-22T05:57:07.987Z,62.43
2019-02-22T05:59:38.378Z,112.27
2019-02-22T06:02:08.583Z,98.10
2019-02-22T06:04:39.473Z,107.27
2019-02-22T06:07:10.064Z,40.40
2019-02-22T06:09:40.294Z,32.70
2019-02-22T06:12:10.569Z,24.80
2019-02-22T06:14:40.889Z,32.00
2019-02-22T06:17:14.580Z,31.63
2019-02-22T06:19:43.460Z,41.87
2019-02-22T06:22:13.785Z,49.33
2019-02-22T06:24:44.530Z,186.37
2019-02-22T06:27:15.165Z,35.63
2019-02-22T06:29:45.479Z,47.30
2019-02-22T06:32:15.984Z,30.67
2019-02-22T06:34:46.279Z,201.80
2019-02-22T06:37:16.720Z,31.97
2019-02-22T06:39:47.434Z,28.93
2019-02-22T06:42:18.781Z,163.27
2019-02-22T06:44:49.869Z,27.00
2019-02-22T06:47:22.742Z,27.77
2019-02-22T06:49:52.684Z,47.17
2019-02-22T06:52:23.142Z,26.47
2019-02-22T06:54:53.429Z,27.10
2019-02-22T06:57:24.185Z,110.40
2019-02-22T06:59:55.055Z,237.07
2019-02-22T07:02:25.458Z,50.20
2019-02-22T07:04:55.987Z,29.30
2019-02-22T07:07:26.685Z,27.87
2019-02-22T07:09:57.954Z,34.77
2019-02-22T07:12:34.863Z,25.10
2019-02-22T07:15:06.053Z,100.60
2019-02-22T07:17:36.410Z,52.40
2019-02-22T07:20:08.260Z,112.03
2019-02-22T07:22:42.127Z,125.47
2019-02-22T07:25:12.414Z,29.70
2019-02-22T07:27:43.756Z,28.10
2019-02-22T07:30:14.813Z,29.07
2019-02-22T07:32:45.354Z,117.63
2019-02-22T07:35:15.665Z,115.27
2019-02-22T07:37:46.185Z,29.57
2019-02-22T07:40:16.710Z,107.83
2019-02-22T07:42:47.419Z,61.00
2019-02-22T07:45:17.772Z,307.73
2019-02-22T07:47:48.094Z,393.60
2019-02-22T07:50:19.200Z,390.30
2019-02-22T07:52:49.586Z,296.57
2019-02-22T07:55:19.918Z,327.57
2019-02-22T07:57:50.345Z,273.47
2019-02-22T08:00:20.876Z,49.63
2019-02-22T08:02:51.599Z,84.20
2019-02-22T08:05:22.015Z,84.80
2019-02-22T08:07:56.246Z,63.07
2019-02-22T08:10:26.558Z,64.17
2019-02-22T08:12:56.956Z,119.23
2019-02-22T08:15:27.728Z,210.80
2019-02-22T08:17:58.171Z,33.10
2019-02-22T08:20:28.448Z,189.10
2019-02-22T08:22:58.764Z,110.17
2019-02-22T08:25:29.141Z,264.20
2019-02-22T08:27:59.452Z,123.63
2019-02-22T08:30:29.935Z,208.13
2019-02-22T08:33:00.274Z,29.63
2019-02-22T08:35:32.547Z,241.53
2019-02-22T08:38:03.018Z,31.67
2019-02-22T08:40:33.766Z,76.47
2019-02-22T08:43:04.081Z,56.17
2019-02-22T08:45:34.819Z,159.20
2019-02-22T08:48:05.186Z,28.33
2019-02-22T08:50:35.590Z,64.77
2019-02-22T08:53:06.165Z,35.47
2019-02-22T08:55:36.842Z,31.07
2019-02-22T08:58:07.291Z,50.23
2019-02-22T09:00:37.693Z,49.47
2019-02-22T09:03:08.063Z,68.03
2019-02-22T09:05:38.392Z,106.20
2019-02-22T09:08:09.051Z,81.27
2019-02-22T09:10:39.372Z,62.17
2019-02-22T09:13:09.890Z,83.67
2019-02-22T09:15:40.251Z,134.70
2019-02-22T09:18:10.628Z,110.83
2019-02-22T09:20:42.709Z,134.43
2019-02-22T09:23:13.038Z,84.57
2019-02-22T09:25:43.346Z,42.00
2019-02-22T09:28:16.081Z,60.17
2019-02-22T09:30:47.387Z,86.13
2019-02-22T09:33:17.723Z,93.70
2019-02-22T09:35:48.340Z,96.87
2019-02-22T09:38:25.074Z,50.07
2019-02-22T09:40:56.540Z,40.40
2019-02-22T09:43:29.957Z,62.40
2019-02-22T09:46:00.336Z,49.00
2019-02-22T09:48:34.552Z,40.00
2019-02-22T09:51:05.196Z,34.03
2019-02-22T09:53:35.602Z,40.40
2019-02-22T09:56:06.371Z,40.47
2019-02-22T09:58:36.770Z,42.30
2019-02-22T10:01:07.226Z,38.37
2019-02-22T10:03:37.886Z,46.93
2019-02-22T10:06:08.493Z,60.77
2019-02-22T10:08:39.374Z,78.70
2019-02-22T10:11:09.898Z,75.13
2019-02-22T10:13:41.555Z,59.70
2019-02-22T10:16:14.088Z,51.73
2019-02-22T10:18:46.279Z,62.90
2019-02-22T10:21:16.926Z,69.70
2019-02-22T10:23:47.996Z,81.27
2019-02-22T10:26:21.310Z,67.87
2019-02-22T10:28:50.969Z,72.30
2019-02-22T10:31:21.256Z,90.87
2019-02-22T10:33:52.237Z,111.30
2019-02-22T10:36:22.681Z,96.37
2019-02-22T10:38:55.223Z,103.87
2019-02-22T10:41:26.352Z,76.07
2019-02-22T10:43:56.965Z,60.33
2019-02-22T10:46:33.023Z,57.93
2019-02-22T10:49:04.928Z,52.80
2019-02-22T10:51:37.616Z,59.10
2019-02-22T10:54:08.721Z,58.27
2019-02-22T10:56:40.033Z,54.23
2019-02-22T10:59:10.467Z,52.93
2019-02-22T11:01:40.847Z,44.27
2019-02-22T11:04:13.934Z,49.73
2019-02-22T11:06:44.294Z,43.73
2019-02-22T11:09:17.466Z,44.07
2019-02-22T11:11:48.124Z,43.97
2019-02-22T11:14:28.767Z,46.10
2019-02-22T11:16:51.318Z,47.80
2019-02-22T11:19:22.065Z,50.87
2019-02-22T11:21:52.449Z,46.33
2019-02-22T11:24:24.954Z,48.30
2019-02-22T11:26:55.685Z,40.47
2019-02-22T11:29:26.749Z,47.93
2019-02-22T11:31:58.132Z,45.00
2019-02-22T11:34:28.542Z,45.77
2019-02-22T11:36:59.251Z,38.97
2019-02-22T11:39:29.599Z,43.67
2019-02-22T11:42:00.033Z,43.13
2019-02-22T11:44:39.897Z,47.93
2019-02-22T11:47:04.337Z,45.10
2019-02-22T11:49:34.635Z,43.93
2019-02-22T11:52:05.185Z,43.63
2019-02-22T11:54:35.595Z,40.57
2019-02-22T11:57:08.874Z,45.40
2019-02-22T11:59:39.348Z,44.60
2019-02-22T12:02:09.692Z,41.27
2019-02-22T12:04:40.048Z,40.83
2019-02-22T12:07:11.091Z,41.03
2019-02-22T12:09:42.247Z,40.20
2019-02-22T12:12:12.864Z,41.83
2019-02-22T12:14:51.065Z,42.80
2019-02-22T12:17:15.918Z,40.67
2019-02-22T12:19:47.039Z,41.20
2019-02-22T12:22:17.937Z,37.93
2019-02-22T12:24:49.466Z,41.67
2019-02-22T12:27:19.880Z,43.43
2019-02-22T12:29:52.441Z,48.60
2019-02-22T12:32:22.682Z,52.40
2019-02-22T12:34:53.563Z,49.03
2019-02-22T12:37:24.531Z,50.87
2019-02-22T12:39:54.869Z,50.57
2019-02-22T12:42:25.678Z,46.33
2019-02-22T12:45:02.982Z,44.93
2019-02-22T12:47:30.384Z,47.67
2019-02-22T12:50:00.871Z,47.93
2019-02-22T12:52:34.237Z,49.67
2019-02-22T12:55:05.331Z,52.47
2019-02-22T12:57:35.741Z,46.97
2019-02-22T13:00:07.472Z,49.83
2019-02-22T13:02:38.535Z,44.47
2019-02-22T13:05:11.201Z,51.03
2019-02-22T13:07:41.508Z,46.47
2019-02-22T13:10:12.007Z,44.47
2019-02-22T13:12:42.754Z,43.57
2019-02-22T13:15:14.499Z,41.83
2019-02-22T13:17:47.456Z,42.83
2019-02-22T13:20:17.852Z,42.43
2019-02-22T13:22:48.595Z,47.03
2019-02-22T13:25:19.195Z,44.43
2019-02-22T13:27:50.097Z,42.23
2019-02-22T13:30:21.259Z,41.10
2019-02-22T13:32:51.696Z,45.03
2019-02-22T13:35:22.138Z,43.90
2019-02-22T13:37:52.630Z,44.13
2019-02-22T13:40:26.041Z,44.33
2019-02-22T13:42:57.662Z,46.27
2019-02-22T13:45:28.036Z,39.53
2019-02-22T13:48:01.007Z,40.83
2019-02-22T13:50:32.352Z,43.17
2019-02-22T13:53:02.856Z,43.90
2019-02-22T13:55:35.658Z,47.17
2019-02-22T13:58:06.700Z,50.87
2019-02-22T14:00:37.237Z,47.50
2019-02-22T14:03:10.057Z,45.97
2019-02-22T14:05:40.369Z,46.57
2019-02-22T14:08:11.482Z,42.10
2019-02-22T14:10:41.853Z,40.97
2019-02-22T14:13:12.248Z,43.90
2019-02-22T14:15:42.974Z,43.57
2019-02-22T14:18:13.628Z,42.90
2019-02-22T14:20:44.114Z,40.67
2019-02-22T14:23:14.764Z,39.97
2019-02-22T14:25:45.202Z,41.47
2019-02-22T14:28:16.182Z,41.97
2019-02-22T14:30:48.578Z,43.30
2019-02-22T14:33:22.660Z,47.67
2019-02-22T14:35:56.420Z,43.60
2019-02-22T14:38:29.130Z,45.17
2019-02-22T14:40:59.814Z,48.70
2019-02-22T14:43:30.256Z,48.43
2019-02-22T14:46:00.932Z,46.37
2019-02-22T14:48:33.419Z,47.33
2019-02-22T14:51:05.913Z,45.40
2019-02-22T14:53:36.700Z,43.83
2019-02-22T14:56:12.083Z,43.00
2019-02-22T14:58:43.405Z,44.67
2019-02-22T15:01:13.829Z,42.90
2019-02-22T15:03:44.325Z,41.07
2019-02-22T15:06:23.600Z,41.40
2019-02-22T15:08:54.130Z,40.90
2019-02-22T15:11:24.826Z,42.40
2019-02-22T15:13:56.118Z,38.80
2019-02-22T15:16:43.771Z,45.40
2019-02-22T15:19:16.387Z,37.33
2019-02-22T15:21:50.652Z,37.33
2019-02-22T15:24:21.569Z,43.57
2019-02-22T15:26:53.979Z,37.87
2019-02-22T15:29:25.595Z,36.60
2019-02-22T15:31:58.840Z,38.00
2019-02-22T15:34:30.437Z,36.90
2019-02-22T15:37:03.733Z,37.03
2019-02-22T15:39:34.218Z,34.70
2019-02-22T15:42:04.679Z,32.43
2019-02-22T15:44:35.903Z,35.57
2019-02-22T15:47:11.818Z,37.07
2019-02-22T15:49:40.255Z,35.27
2019-02-22T15:52:14.242Z,36.10
2019-02-22T15:54:44.716Z,33.67
2019-02-22T15:57:15.890Z,34.23
2019-02-22T15:59:47.184Z,34.27
2019-02-22T16:02:17.857Z,35.10
2019-02-22T16:04:51.791Z,34.25
2019-02-22T16:07:22.038Z,33.80
2019-02-22T16:09:52.477Z,34.70
2019-02-22T16:12:22.820Z,30.87
2019-02-22T16:14:53.079Z,31.67
2019-02-22T16:17:23.659Z,29.67
2019-02-22T16:19:53.909Z,27.67
2019-02-22T16:22:24.646Z,40.00
2019-02-22T16:24:54.909Z,32.27
2019-02-22T16:27:25.775Z,32.00
2019-02-22T16:29:57.885Z,29.60
2019-02-22T16:32:29.648Z,33.03
2019-02-22T16:35:00.348Z,32.70
2019-02-22T16:37:31.250Z,34.90
2019-02-22T16:40:01.516Z,30.90
2019-02-22T16:42:31.925Z,32.77
2019-02-22T16:45:04.999Z,30.13
2019-02-22T16:47:40.094Z,27.20
2019-02-22T16:50:07.472Z,33.27
2019-02-22T16:52:37.762Z,31.10
2019-02-22T16:55:10.342Z,27.67
2019-02-22T16:57:40.633Z,27.27
2019-02-22T17:00:12.838Z,46.37
2019-02-22T17:02:43.119Z,45.93
2019-02-22T17:05:14.485Z,43.17
2019-02-22T17:07:45.812Z,48.30
2019-02-22T17:10:16.070Z,55.00
2019-02-22T17:12:46.388Z,54.98
2019-02-22T17:15:16.800Z,51.90
2019-02-22T17:17:48.155Z,55.63
2019-02-22T17:20:18.579Z,56.57
2019-02-22T17:22:48.756Z,58.37
2019-02-22T17:25:19.070Z,61.33
2019-02-22T17:27:49.616Z,69.07
2019-02-22T17:30:20.207Z,67.13
2019-02-22T17:32:50.548Z,68.10
2019-02-22T17:35:20.774Z,62.47
2019-02-22T17:37:51.030Z,68.47
2019-02-22T17:40:21.966Z,102.90
2019-02-22T17:42:52.208Z,91.07
2019-02-22T17:45:22.549Z,100.60
2019-02-22T17:47:52.780Z,102.70
2019-02-22T17:50:23.432Z,114.70
2019-02-22T17:52:53.647Z,116.10
2019-02-22T17:55:24.486Z,104.37
2019-02-22T17:57:54.754Z,114.60
2019-02-22T18:00:26.341Z,107.23
2019-02-22T18:03:25.883Z,100.13
2019-02-22T18:05:56.442Z,118.13
2019-02-22T18:08:27.341Z,120.33
2019-02-22T18:10:57.561Z,128.77
2019-02-22T18:13:27.797Z,126.57
2019-02-22T18:15:58.446Z,115.10
2019-02-22T18:18:29.102Z,109.07
2019-02-22T18:20:59.357Z,122.10
2019-02-22T18:23:29.603Z,121.17
2019-02-22T18:26:00.117Z,116.70
2019-02-22T18:28:30.599Z,119.00
2019-02-22T18:31:00.837Z,128.27
2019-02-22T18:33:31.114Z,124.23
2019-02-22T18:36:01.867Z,125.43
2019-02-22T18:38:32.101Z,114.20
2019-02-22T18:41:02.329Z,127.93
2019-02-22T18:43:32.548Z,119.13
2019-02-22T18:46:03.479Z,117.80
2019-02-22T18:48:34.143Z,110.33
2019-02-22T18:51:05.270Z,108.30
2019-02-22T18:53:35.520Z,116.53
2019-02-22T18:56:06.196Z,100.37
2019-02-22T18:58:36.692Z,111.60
2019-02-22T19:01:06.962Z,96.93
2019-02-22T19:03:37.173Z,106.27
2019-02-22T19:06:07.728Z,97.73
2019-02-22T19:08:38.004Z,98.10
2019-02-22T19:11:08.214Z,87.63
2019-02-22T19:13:38.424Z,89.07
2019-02-22T19:16:08.743Z,87.90
2019-02-22T19:18:40.003Z,93.23
2019-02-22T19:21:10.264Z,83.63
2019-02-22T19:23:40.424Z,89.53
2019-02-22T19:26:10.657Z,93.37
2019-02-22T19:28:40.791Z,102.23
2019-02-22T19:31:11.419Z,91.10
2019-02-22T19:33:41.644Z,84.30
2019-02-22T19:36:11.853Z,97.53
2019-02-22T19:38:42.044Z,83.90
2019-02-22T19:41:12.213Z,85.10
2019-02-22T19:43:42.519Z,77.07
2019-02-22T19:46:13.025Z,88.13
2019-02-22T19:48:43.517Z,81.93
2019-02-22T19:51:13.704Z,76.90
2019-02-22T19:53:43.897Z,78.47
2019-02-22T19:56:14.453Z,86.37
2019-02-22T19:58:45.091Z,88.53
2019-02-22T20:01:15.314Z,75.73
2019-02-22T20:03:45.550Z,80.17
2019-02-22T20:06:15.856Z,78.60
2019-02-22T20:08:46.056Z,73.67
2019-02-22T20:11:16.455Z,72.43
2019-02-22T20:13:46.678Z,75.80
2019-02-22T20:16:17.398Z,85.07
2019-02-22T20:18:47.615Z,82.60
2019-02-22T20:21:17.875Z,78.37
2019-02-22T20:23:48.124Z,81.70
2019-02-22T20:26:18.609Z,78.60
2019-02-22T20:28:49.243Z,76.33
2019-02-22T20:31:20.597Z,96.60
2019-02-22T20:33:51.444Z,77.10
2019-02-22T20:36:28.395Z,74.93
2019-02-22T20:38:53.796Z,65.77
2019-02-22T20:41:23.980Z,62.50
2019-02-22T20:43:54.207Z,59.60
2019-02-22T20:46:24.398Z,64.67
2019-02-22T20:49:00.760Z,61.93
2019-02-22T20:51:27.577Z,63.53
2019-02-22T20:53:58.068Z,61.77
2019-02-22T20:56:29.002Z,53.00
2019-02-22T20:59:00.100Z,66.90
2019-02-22T21:01:30.561Z,64.80
2019-02-22T21:04:00.816Z,65.57
2019-02-22T21:06:31.287Z,79.53
2019-02-22T21:09:01.561Z,63.53
2019-02-22T21:11:32.488Z,61.07
2019-02-22T21:14:03.201Z,55.83
2019-02-22T21:16:33.759Z,77.67
2019-02-22T21:19:04.050Z,69.30
2019-02-22T21:21:34.597Z,67.00
2019-02-22T21:24:04.928Z,60.70
2019-02-22T21:26:35.638Z,55.57
2019-02-22T21:29:05.912Z,54.17
2019-02-22T21:31:36.834Z,51.87
2019-02-22T21:34:07.044Z,51.70
2019-02-22T21:36:37.538Z,54.63
2019-02-22T21:39:07.906Z,51.93
2019-02-22T21:41:39.286Z,66.03
2019-02-22T21:44:09.561Z,62.47
2019-02-22T21:46:40.458Z,58.03
2019-02-22T21:49:11.044Z,69.57
2019-02-22T21:51:43.170Z,85.00
2019-02-22T21:54:13.927Z,85.83
2019-02-22T21:56:44.551Z,77.03
2019-02-22T21:59:15.475Z,73.77
2019-02-22T22:01:46.565Z,104.90
2019-02-22T22:04:17.225Z,106.03
2019-02-22T22:06:48.286Z,126.17
2019-02-22T22:09:19.228Z,127.57
2019-02-22T22:11:50.780Z,132.43
2019-02-22T22:14:22.049Z,133.83
2019-02-22T22:16:53.875Z,112.15
2019-02-22T22:19:24.977Z,153.90
2019-02-22T22:21:55.816Z,110.10
2019-02-22T22:24:26.427Z,153.00
2019-02-22T22:26:57.005Z,121.60
2019-02-22T22:29:27.933Z,146.97
2019-02-22T22:31:58.654Z,126.67
2019-02-22T22:34:29.396Z,140.07
2019-02-22T22:36:59.992Z,155.47
2019-02-22T22:39:31.009Z,151.33
2019-02-22T22:42:02.117Z,164.70
2019-02-22T22:44:32.755Z,171.13
2019-02-22T22:47:03.746Z,166.50
2019-02-22T22:49:35.051Z,177.50
2019-02-22T22:52:05.931Z,172.60
2019-02-22T22:54:36.638Z,177.47
2019-02-22T22:57:07.412Z,186.57
2019-02-22T22:59:38.048Z,179.17
2019-02-22T23:02:09.407Z,194.73
2019-02-22T23:04:40.372Z,190.77
2019-02-22T23:07:11.286Z,200.40
2019-02-22T23:09:42.782Z,196.13
2019-02-22T23:12:13.368Z,176.40
2019-02-22T23:14:44.828Z,196.27
2019-02-22T23:17:15.728Z,192.07
2019-02-22T23:19:47.739Z,176.17
2019-02-22T23:22:19.842Z,184.40
2019-02-22T23:24:52.202Z,160.33
2019-02-22T23:27:24.930Z,170.10
2019-02-22T23:29:57.220Z,160.87
2019-02-22T23:32:29.579Z,162.83
2019-02-22T23:35:01.569Z,149.23
2019-02-22T23:37:33.534Z,147.13
2019-02-22T23:40:06.336Z,143.77
2019-02-22T23:42:38.776Z,152.53
2019-02-22T23:45:10.853Z,132.53
2019-02-22T23:47:43.196Z,141.93
2019-02-22T23:50:15.157Z,139.87
2019-02-22T23:52:47.029Z,124.70
2019-02-22T23:55:19.413Z,142.13
2019-02-22T23:57:51.463Z,140.47
